createdAt,value
2019-04-25T00:00:25.209Z,1016.70
2019-04-25T00:01:25.178Z,1016.64
2019-04-25T00:02:25.172Z,1016.66
2019-04-25T00:03:25.161Z,1016.66
2019-04-25T00:04:25.144Z,1016.65
2019-04-25T00:05:25.136Z,1016.68
2019-04-25T00:06:25.130Z,1016.65
2019-04-25T00:07:25.111Z,1016.67
2019-04-25T00:08:25.103Z,1016.66
2019-04-25T00:09:25.090Z,1016.61
2019-04-25T00:10:25.087Z,1016.66
2019-04-25T00:11:25.094Z,1016.66
2019-04-25T00:12:25.068Z,1016.63
2019-04-25T00:13:25.105Z,1016.65
2019-04-25T00:14:25.052Z,1016.63
2019-04-25T00:15:25.080Z,1016.65
2019-04-25T00:16:25.029Z,1016.66
2019-04-25T00:17:25.047Z,1016.66
2019-04-25T00:18:25.014Z,1016.69
2019-04-25T00:19:24.983Z,1016.60
2019-04-25T00:20:24.969Z,1016.66
2019-04-25T00:21:24.961Z,1016.63
2019-04-25T00:22:24.943Z,1016.69
2019-04-25T00:23:24.940Z,1016.70
2019-04-25T00:24:24.927Z,1016.66
2019-04-25T00:25:24.915Z,1016.71
2019-04-25T00:26:35.080Z,1016.63
2019-04-25T00:27:24.889Z,1016.60
2019-04-25T00:28:24.921Z,1016.61
2019-04-25T00:29:24.863Z,1016.61
2019-04-25T00:30:24.852Z,1016.63
2019-04-25T00:31:26.116Z,1016.67
2019-04-25T00:32:24.832Z,1016.64
2019-04-25T00:33:24.821Z,1016.72
2019-04-25T00:34:24.846Z,1016.73
2019-04-25T00:35:24.796Z,1016.67
2019-04-25T00:36:24.791Z,1016.67
2019-04-25T00:37:24.777Z,1016.68
2019-04-25T00:38:24.766Z,1016.66
2019-04-25T00:39:24.754Z,1016.67
2019-04-25T00:40:24.750Z,1016.64
2019-04-25T00:41:24.736Z,1016.61
2019-04-25T00:42:24.726Z,1016.68
2019-04-25T00:43:24.714Z,1016.64
2019-04-25T00:44:24.697Z,1016.65
2019-04-25T00:45:24.736Z,1016.62
2019-04-25T00:46:24.680Z,1016.67
2019-04-25T00:47:24.665Z,1016.65
2019-04-25T00:48:24.652Z,1016.65
2019-04-25T00:49:24.643Z,1016.61
2019-04-25T00:50:24.626Z,1016.68
2019-04-25T00:51:24.658Z,1016.67
2019-04-25T00:52:24.611Z,1016.64
2019-04-25T00:53:24.597Z,1016.68
2019-04-25T00:54:24.590Z,1016.64
2019-04-25T00:55:28.671Z,1016.65
2019-04-25T00:56:24.561Z,1016.64
2019-04-25T00:57:36.442Z,1016.62
2019-04-25T00:58:24.542Z,1016.61
2019-04-25T00:59:24.531Z,1016.62
2019-04-25T01:00:24.517Z,1016.61
2019-04-25T01:01:24.508Z,1016.58
2019-04-25T01:02:24.500Z,1016.61
2019-04-25T01:03:24.528Z,1016.57
2019-04-25T01:04:24.469Z,1016.52
2019-04-25T01:05:24.457Z,1016.56
2019-04-25T01:06:24.449Z,1016.55
2019-04-25T01:07:24.441Z,1016.57
2019-04-25T01:08:24.431Z,1016.58
2019-04-25T01:09:24.422Z,1016.51
2019-04-25T01:10:24.407Z,1016.57
2019-04-25T01:11:24.393Z,1016.58
2019-04-25T01:12:24.379Z,1016.59
2019-04-25T01:13:24.375Z,1016.58
2019-04-25T01:14:24.398Z,1016.63
2019-04-25T01:15:24.351Z,1016.58
2019-04-25T01:16:24.342Z,1016.61
2019-04-25T01:17:24.326Z,1016.59
2019-04-25T01:18:25.217Z,1016.57
2019-04-25T01:19:24.305Z,1016.57
2019-04-25T01:20:24.303Z,1016.57
2019-04-25T01:21:25.344Z,1016.60
2019-04-25T01:22:24.273Z,1016.57
2019-04-25T01:23:24.264Z,1016.57
2019-04-25T01:24:24.251Z,1016.54
2019-04-25T01:25:24.281Z,1016.55
2019-04-25T01:26:24.224Z,1016.52
2019-04-25T01:27:24.215Z,1016.56
2019-04-25T01:28:35.460Z,1016.52
2019-04-25T01:29:24.200Z,1016.51
2019-04-25T01:30:24.180Z,1016.50
2019-04-25T01:31:24.932Z,1016.52
2019-04-25T01:32:24.162Z,1016.53
2019-04-25T01:33:24.150Z,1016.59
2019-04-25T01:34:25.753Z,1016.54
2019-04-25T01:35:24.129Z,1016.47
2019-04-25T01:36:24.115Z,1016.52
2019-04-25T01:37:25.783Z,1016.52
2019-04-25T01:38:24.164Z,1016.49
2019-04-25T01:39:24.230Z,1016.54
2019-04-25T01:40:24.076Z,1016.46
2019-04-25T01:41:24.342Z,1016.50
2019-04-25T01:42:24.046Z,1016.46
2019-04-25T01:43:24.075Z,1016.48
2019-04-25T01:44:24.182Z,1016.51
2019-04-25T01:45:24.052Z,1016.50
2019-04-25T01:46:24.342Z,1016.52
2019-04-25T01:47:24.042Z,1016.48
2019-04-25T01:48:23.983Z,1016.47
2019-04-25T01:49:24.003Z,1016.43
2019-04-25T01:50:23.962Z,1016.47
2019-04-25T01:51:24.078Z,1016.46
2019-04-25T01:52:23.935Z,1016.47
2019-04-25T01:53:24.164Z,1016.46
2019-04-25T01:54:23.912Z,1016.45
2019-04-25T01:55:23.902Z,1016.43
2019-04-25T01:56:24.748Z,1016.40
2019-04-25T01:57:24.047Z,1016.41
2019-04-25T01:58:23.873Z,1016.39
2019-04-25T01:59:36.510Z,1016.40
2019-04-25T02:00:23.845Z,1016.37
2019-04-25T02:01:24.132Z,1016.38
2019-04-25T02:02:23.828Z,1016.42
2019-04-25T02:03:27.094Z,1016.43
2019-04-25T02:04:23.804Z,1016.35
2019-04-25T02:05:23.813Z,1016.40
2019-04-25T02:06:24.777Z,1016.37
2019-04-25T02:07:23.771Z,1016.42
2019-04-25T02:08:23.926Z,1016.37
2019-04-25T02:09:24.959Z,1016.41
2019-04-25T02:10:23.735Z,1016.34
2019-04-25T02:11:24.054Z,1016.39
2019-04-25T02:12:23.718Z,1016.36
2019-04-25T02:13:23.722Z,1016.42
2019-04-25T02:14:23.783Z,1016.36
2019-04-25T02:15:23.680Z,1016.34
2019-04-25T02:16:23.869Z,1016.34
2019-04-25T02:17:24.115Z,1016.34
2019-04-25T02:18:23.795Z,1016.32
2019-04-25T02:19:24.177Z,1016.33
2019-04-25T02:20:23.909Z,1016.30
2019-04-25T02:21:23.658Z,1016.31
2019-04-25T02:22:24.325Z,1016.31
2019-04-25T02:23:24.079Z,1016.31
2019-04-25T02:24:23.741Z,1016.33
2019-04-25T02:25:24.603Z,1016.28
2019-04-25T02:26:24.101Z,1016.30
2019-04-25T02:27:24.255Z,1016.33
2019-04-25T02:28:24.020Z,1016.37
2019-04-25T02:29:23.591Z,1016.33
2019-04-25T02:30:35.840Z,1016.33
2019-04-25T02:31:24.708Z,1016.34
2019-04-25T02:32:24.796Z,1016.32
2019-04-25T02:33:24.213Z,1016.33
2019-04-25T02:34:25.048Z,1016.33
2019-04-25T02:35:24.634Z,1016.36
2019-04-25T02:36:24.686Z,1016.34
2019-04-25T02:37:25.590Z,1016.31
2019-04-25T02:38:24.335Z,1016.33
2019-04-25T02:39:24.586Z,1016.37
2019-04-25T02:40:23.970Z,1016.32
2019-04-25T02:41:25.020Z,1016.35
2019-04-25T02:42:24.657Z,1016.38
2019-04-25T02:43:23.898Z,1016.35
2019-04-25T02:44:24.754Z,1016.37
2019-04-25T02:45:24.515Z,1016.37
2019-04-25T02:46:24.813Z,1016.39
2019-04-25T02:47:24.882Z,1016.33
2019-04-25T02:48:24.191Z,1016.37
2019-04-25T02:49:33.019Z,1016.40
2019-04-25T02:50:24.712Z,1016.38
2019-04-25T02:51:24.337Z,1016.42
2019-04-25T02:52:24.669Z,1016.38
2019-04-25T02:53:23.987Z,1016.39
2019-04-25T02:54:24.523Z,1016.39
2019-04-25T02:55:34.064Z,1016.44
2019-04-25T02:56:31.286Z,1016.42
2019-04-25T02:57:25.145Z,1016.45
2019-04-25T02:58:24.303Z,1016.41
2019-04-25T02:59:25.342Z,1016.37
2019-04-25T03:00:24.870Z,1016.35
2019-04-25T03:01:34.329Z,1016.39
2019-04-25T03:02:24.767Z,1016.39
2019-04-25T03:03:24.566Z,1016.43
2019-04-25T03:04:24.098Z,1016.49
2019-04-25T03:05:25.432Z,1016.52
2019-04-25T03:06:24.963Z,1016.44
2019-04-25T03:07:24.771Z,1016.43
2019-04-25T03:08:24.397Z,1016.35
2019-04-25T03:09:24.985Z,1016.35
2019-04-25T03:10:26.738Z,1016.38
2019-04-25T03:11:24.538Z,1016.38
2019-04-25T03:12:32.436Z,1016.41
2019-04-25T03:13:24.727Z,1016.39
2019-04-25T03:14:24.703Z,1016.42
2019-04-25T03:15:24.414Z,1016.35
2019-04-25T03:16:24.975Z,1016.32
2019-04-25T03:17:24.661Z,1016.26
2019-04-25T03:18:24.859Z,1016.29
2019-04-25T03:19:24.400Z,1016.28
2019-04-25T03:20:24.359Z,1016.27
2019-04-25T03:21:24.984Z,1016.30
2019-04-25T03:22:26.426Z,1016.29
2019-04-25T03:23:24.487Z,1016.26
2019-04-25T03:24:24.945Z,1016.23
2019-04-25T03:25:24.821Z,1016.26
2019-04-25T03:26:23.383Z,1016.26
2019-04-25T03:27:22.873Z,1016.25
2019-04-25T03:28:23.870Z,1016.22
2019-04-25T03:29:24.666Z,1016.20
2019-04-25T03:30:25.276Z,1016.22
2019-04-25T03:31:26.749Z,1016.23
2019-04-25T03:32:35.534Z,1016.21
2019-04-25T03:33:25.741Z,1016.18
2019-04-25T03:34:25.318Z,1016.21
2019-04-25T03:35:23.295Z,1016.23
2019-04-25T03:36:23.874Z,1016.19
2019-04-25T03:37:23.417Z,1016.19
2019-04-25T03:38:24.199Z,1016.20
2019-04-25T03:39:24.162Z,1016.21
2019-04-25T03:40:23.544Z,1016.25
2019-04-25T03:41:24.425Z,1016.24
2019-04-25T03:42:24.058Z,1016.24
2019-04-25T03:43:23.250Z,1016.22
2019-04-25T03:44:23.710Z,1016.24
2019-04-25T03:45:23.700Z,1016.23
2019-04-25T03:46:23.323Z,1016.23
2019-04-25T03:47:23.570Z,1016.24
2019-04-25T03:48:25.116Z,1016.22
2019-04-25T03:49:23.868Z,1016.25
2019-04-25T03:50:23.295Z,1016.25
2019-04-25T03:51:23.990Z,1016.25
2019-04-25T03:52:23.886Z,1016.25
2019-04-25T03:53:23.992Z,1016.25
2019-04-25T03:54:23.579Z,1016.19
2019-04-25T03:55:23.976Z,1016.24
2019-04-25T03:56:22.559Z,1016.19
2019-04-25T03:57:23.301Z,1016.22
2019-04-25T03:58:23.958Z,1016.23
2019-04-25T03:59:23.642Z,1016.19
2019-04-25T04:00:24.067Z,1016.21
2019-04-25T04:01:24.198Z,1016.19
2019-04-25T04:02:23.525Z,1016.20
2019-04-25T04:03:33.904Z,1016.20
2019-04-25T04:04:23.725Z,1016.19
2019-04-25T04:05:23.338Z,1016.18
2019-04-25T04:06:24.018Z,1016.21
2019-04-25T04:07:23.800Z,1016.17
2019-04-25T04:08:24.182Z,1016.19
2019-04-25T04:09:23.990Z,1016.20
2019-04-25T04:10:23.259Z,1016.17
2019-04-25T04:11:23.795Z,1016.17
2019-04-25T04:12:24.172Z,1016.22
2019-04-25T04:13:24.247Z,1016.19
2019-04-25T04:14:23.995Z,1016.22
2019-04-25T04:15:23.184Z,1016.17
2019-04-25T04:16:23.244Z,1016.20
2019-04-25T04:17:23.759Z,1016.15
2019-04-25T04:18:25.358Z,1016.16
2019-04-25T04:19:23.956Z,1016.15
2019-04-25T04:20:23.509Z,1016.11
2019-04-25T04:21:23.518Z,1016.16
2019-04-25T04:22:22.270Z,1016.15
2019-04-25T04:23:23.205Z,1016.12
2019-04-25T04:24:23.879Z,1016.11
2019-04-25T04:25:23.615Z,1016.12
2019-04-25T04:26:23.205Z,1016.09
2019-04-25T04:27:23.871Z,1016.10
2019-04-25T04:28:23.579Z,1016.11
2019-04-25T04:29:25.086Z,1016.14
2019-04-25T04:30:22.186Z,1016.09
2019-04-25T04:31:23.513Z,1016.05
2019-04-25T04:32:22.153Z,1016.07
2019-04-25T04:33:30.175Z,1016.12
2019-04-25T04:35:35.318Z,1016.11
2019-04-25T04:36:35.290Z,1016.13
2019-04-25T04:37:35.284Z,1016.11
2019-04-25T04:38:35.300Z,1016.13
2019-04-25T04:39:35.298Z,1016.12
2019-04-25T04:40:36.160Z,1016.12
2019-04-25T04:41:35.281Z,1016.12
2019-04-25T04:42:35.225Z,1016.11
2019-04-25T04:43:35.215Z,1016.11
2019-04-25T04:44:35.205Z,1016.11
2019-04-25T04:45:35.196Z,1016.09
2019-04-25T04:46:35.180Z,1016.09
2019-04-25T04:47:35.175Z,1016.09
2019-04-25T04:48:35.163Z,1016.08
2019-04-25T04:49:35.145Z,1016.10
2019-04-25T04:50:35.131Z,1016.09
2019-04-25T04:51:35.125Z,1016.07
2019-04-25T04:52:35.129Z,1016.10
2019-04-25T04:53:35.853Z,1016.10
2019-04-25T04:54:35.086Z,1016.08
2019-04-25T04:55:35.076Z,1016.07
2019-04-25T04:56:35.067Z,1016.03
2019-04-25T04:57:36.281Z,1016.07
2019-04-25T04:58:35.048Z,1016.06
2019-04-25T04:59:35.033Z,1016.08
2019-04-25T05:00:35.019Z,1016.07
2019-04-25T05:01:35.010Z,1016.06
2019-04-25T05:02:35.001Z,1016.08
2019-04-25T05:03:34.995Z,1016.02
2019-04-25T05:04:35.023Z,1016.07
2019-04-25T05:05:41.957Z,1016.00
2019-04-25T05:06:34.968Z,1016.03
2019-04-25T05:07:34.947Z,1016.00
2019-04-25T05:08:34.954Z,1016.01
2019-04-25T05:09:34.930Z,1016.02
2019-04-25T05:10:34.910Z,1015.98
2019-04-25T05:11:34.894Z,1015.99
2019-04-25T05:12:34.892Z,1015.97
2019-04-25T05:13:34.874Z,1015.98
2019-04-25T05:14:34.872Z,1016.01
2019-04-25T05:15:34.856Z,1016.00
2019-04-25T05:16:34.839Z,1015.99
2019-04-25T05:17:34.830Z,1015.94
2019-04-25T05:18:39.448Z,1015.95
2019-04-25T05:19:35.833Z,1015.90
2019-04-25T05:20:35.609Z,1015.95
2019-04-25T05:21:34.784Z,1015.95
2019-04-25T05:22:34.775Z,1015.93
2019-04-25T05:23:34.762Z,1015.96
2019-04-25T05:24:34.777Z,1015.95
2019-04-25T05:25:34.780Z,1015.94
2019-04-25T05:26:34.735Z,1016.01
2019-04-25T05:27:42.786Z,1016.02
2019-04-25T05:28:35.706Z,1016.02
2019-04-25T05:29:34.707Z,1016.00
2019-04-25T05:30:34.688Z,1016.04
2019-04-25T05:31:34.687Z,1016.02
2019-04-25T05:32:34.730Z,1016.02
2019-04-25T05:33:34.659Z,1016.03
2019-04-25T05:34:34.655Z,1016.09
2019-04-25T05:35:34.631Z,1016.06
2019-04-25T05:36:47.184Z,1016.02
2019-04-25T05:37:34.608Z,1016.01
2019-04-25T05:38:34.603Z,1016.05
2019-04-25T05:39:34.588Z,1016.00
2019-04-25T05:40:34.579Z,1016.00
2019-04-25T05:41:35.988Z,1016.03
2019-04-25T05:42:34.601Z,1016.03
2019-04-25T05:43:34.547Z,1016.03
2019-04-25T05:44:34.534Z,1015.98
2019-04-25T05:45:34.526Z,1016.05
2019-04-25T05:46:34.519Z,1016.01
2019-04-25T05:47:34.503Z,1016.01
2019-04-25T05:48:34.500Z,1015.93
2019-04-25T05:49:34.478Z,1015.96
2019-04-25T05:50:34.476Z,1015.99
2019-04-25T05:51:34.460Z,1015.95
2019-04-25T05:52:34.450Z,1015.99
2019-04-25T05:53:34.478Z,1015.99
2019-04-25T05:54:34.544Z,1015.94
2019-04-25T05:55:34.428Z,1015.95
2019-04-25T05:56:34.415Z,1015.95
2019-04-25T05:57:45.504Z,1015.94
2019-04-25T05:58:35.391Z,1015.95
2019-04-25T05:59:34.378Z,1015.97
2019-04-25T06:00:34.359Z,1015.96
2019-04-25T06:01:35.831Z,1015.95
2019-04-25T06:02:34.339Z,1015.91
2019-04-25T06:03:34.330Z,1015.96
2019-04-25T06:04:34.328Z,1016.02
2019-04-25T06:05:34.309Z,1016.00
2019-04-25T06:06:36.620Z,1016.04
2019-04-25T06:07:45.365Z,1016.01
2019-04-25T06:08:35.221Z,1015.95
2019-04-25T06:09:35.848Z,1015.96
2019-04-25T06:10:34.289Z,1015.92
2019-04-25T06:11:34.233Z,1015.97
2019-04-25T06:12:34.227Z,1015.98
2019-04-25T06:13:34.214Z,1016.01
2019-04-25T06:14:34.206Z,1015.95
2019-04-25T06:15:34.193Z,1015.97
2019-04-25T06:16:34.306Z,1015.93
2019-04-25T06:17:34.371Z,1016.03
2019-04-25T06:18:34.155Z,1016.03
2019-04-25T06:19:34.149Z,1016.01
2019-04-25T06:20:34.386Z,1015.97
2019-04-25T06:21:34.126Z,1016.08
2019-04-25T06:22:34.151Z,1015.97
2019-04-25T06:23:34.146Z,1015.95
2019-04-25T06:24:34.365Z,1015.94
2019-04-25T06:25:38.907Z,1015.92
2019-04-25T06:26:39.582Z,1016.01
2019-04-25T06:27:35.286Z,1016.02
2019-04-25T06:28:34.632Z,1016.00
2019-04-25T06:29:34.797Z,1016.00
2019-04-25T06:30:35.244Z,1015.97
2019-04-25T06:31:34.224Z,1015.96
2019-04-25T06:32:35.323Z,1015.95
2019-04-25T06:33:34.095Z,1015.93
2019-04-25T06:34:36.284Z,1015.96
2019-04-25T06:35:35.646Z,1015.93
2019-04-25T06:36:35.311Z,1015.97
2019-04-25T06:37:35.050Z,1015.94
2019-04-25T06:38:44.852Z,1015.98
2019-04-25T06:39:34.034Z,1015.96
2019-04-25T06:40:34.557Z,1015.93
2019-04-25T06:41:34.374Z,1015.93
2019-04-25T06:42:34.693Z,1015.97
2019-04-25T06:43:34.269Z,1015.93
2019-04-25T06:44:34.585Z,1015.92
2019-04-25T06:45:34.411Z,1015.95
2019-04-25T06:46:33.925Z,1015.89
2019-04-25T06:47:34.163Z,1015.87
2019-04-25T06:48:35.075Z,1015.85
2019-04-25T06:49:36.373Z,1015.84
2019-04-25T06:50:35.291Z,1015.84
2019-04-25T06:51:34.293Z,1015.87
2019-04-25T06:52:35.354Z,1015.83
2019-04-25T06:53:34.621Z,1015.83
2019-04-25T06:54:35.120Z,1015.81
2019-04-25T06:55:34.298Z,1015.84
2019-04-25T06:56:34.494Z,1015.81
2019-04-25T06:57:34.178Z,1015.82
2019-04-25T06:58:34.218Z,1015.83
2019-04-25T06:59:34.475Z,1015.78
2019-04-25T07:00:40.794Z,1015.84
2019-04-25T07:01:34.728Z,1015.80
2019-04-25T07:02:35.134Z,1015.78
2019-04-25T07:03:35.263Z,1015.82
2019-04-25T07:04:34.832Z,1015.83
2019-04-25T07:05:40.002Z,1015.80
2019-04-25T07:06:34.742Z,1015.83
2019-04-25T07:07:35.132Z,1015.83
2019-04-25T07:08:35.198Z,1015.82
2019-04-25T07:09:45.943Z,1015.79
2019-04-25T07:10:34.838Z,1015.85
2019-04-25T07:11:34.861Z,1015.82
2019-04-25T07:12:34.852Z,1015.83
2019-04-25T07:13:35.723Z,1015.86
2019-04-25T07:14:36.923Z,1015.86
2019-04-25T07:15:34.099Z,1015.81
2019-04-25T07:16:34.626Z,1015.84
2019-04-25T07:17:35.001Z,1015.87
2019-04-25T07:18:36.343Z,1015.85
2019-04-25T07:19:34.306Z,1015.84
2019-04-25T07:20:34.548Z,1015.83
2019-04-25T07:21:34.680Z,1015.86
2019-04-25T07:22:34.765Z,1015.81
2019-04-25T07:23:34.643Z,1015.82
2019-04-25T07:24:35.019Z,1015.82
2019-04-25T07:25:35.335Z,1015.81
2019-04-25T07:26:37.711Z,1015.86
2019-04-25T07:27:35.581Z,1015.82
2019-04-25T07:28:35.677Z,1015.79
2019-04-25T07:29:33.754Z,1015.77
2019-04-25T07:30:48.599Z,1015.75
2019-04-25T07:31:34.822Z,1015.78
2019-04-25T07:32:34.825Z,1015.83
2019-04-25T07:33:34.722Z,1015.80
2019-04-25T07:34:34.115Z,1015.79
2019-04-25T07:35:34.575Z,1015.79
2019-04-25T07:36:34.782Z,1015.84
2019-04-25T07:37:34.923Z,1015.79
2019-04-25T07:38:34.025Z,1015.78
2019-04-25T07:39:34.409Z,1015.77
2019-04-25T07:40:43.857Z,1015.74
2019-04-25T07:41:34.278Z,1015.76
2019-04-25T07:42:34.224Z,1015.76
2019-04-25T07:43:34.103Z,1015.74
2019-04-25T07:44:45.376Z,1015.74
2019-04-25T07:45:35.053Z,1015.74
2019-04-25T07:46:37.245Z,1015.75
2019-04-25T07:47:35.122Z,1015.79
2019-04-25T07:48:34.241Z,1015.75
2019-04-25T07:49:34.691Z,1015.76
2019-04-25T07:50:34.330Z,1015.72
2019-04-25T07:51:34.604Z,1015.74
2019-04-25T07:52:34.338Z,1015.72
2019-04-25T07:53:34.600Z,1015.72
2019-04-25T07:54:34.406Z,1015.70
2019-04-25T07:55:35.902Z,1015.72
2019-04-25T07:56:35.001Z,1015.65
2019-04-25T07:57:34.572Z,1015.68
2019-04-25T07:58:44.987Z,1015.69
2019-04-25T07:59:35.328Z,1015.69
2019-04-25T08:00:35.155Z,1015.65
2019-04-25T08:01:33.773Z,1015.65
2019-04-25T08:02:34.139Z,1015.62
2019-04-25T08:03:34.393Z,1015.66
2019-04-25T08:04:34.833Z,1015.60
2019-04-25T08:05:35.134Z,1015.61
2019-04-25T08:06:34.322Z,1015.63
2019-04-25T08:07:33.929Z,1015.64
2019-04-25T08:08:33.963Z,1015.64
2019-04-25T08:09:35.202Z,1015.61
2019-04-25T08:10:33.865Z,1015.65
2019-04-25T08:11:43.448Z,1015.65
2019-04-25T08:12:34.649Z,1015.68
2019-04-25T08:13:34.255Z,1015.67
2019-04-25T08:14:34.169Z,1015.65
2019-04-25T08:15:33.896Z,1015.62
2019-04-25T08:16:34.325Z,1015.63
2019-04-25T08:17:34.647Z,1015.62
2019-04-25T08:18:32.835Z,1015.63
2019-04-25T08:19:33.491Z,1015.63
2019-04-25T08:20:34.322Z,1015.62
2019-04-25T08:21:34.426Z,1015.63
2019-04-25T08:22:34.482Z,1015.65
2019-04-25T08:23:36.715Z,1015.65
2019-04-25T08:24:34.604Z,1015.60
2019-04-25T08:25:33.450Z,1015.61
2019-04-25T08:26:34.825Z,1015.66
2019-04-25T08:27:34.171Z,1015.60
2019-04-25T08:28:34.481Z,1015.70
2019-04-25T08:29:36.431Z,1015.67
2019-04-25T08:30:35.183Z,1015.66
2019-04-25T08:31:34.769Z,1015.64
2019-04-25T08:32:35.087Z,1015.62
2019-04-25T08:33:34.312Z,1015.58
2019-04-25T08:34:34.416Z,1015.61
2019-04-25T08:35:34.205Z,1015.59
2019-04-25T08:36:33.829Z,1015.59
2019-04-25T08:37:34.463Z,1015.59
2019-04-25T08:38:34.508Z,1015.57
2019-04-25T08:39:34.045Z,1015.57
2019-04-25T08:40:35.017Z,1015.62
2019-04-25T08:41:34.828Z,1015.61
2019-04-25T08:42:44.166Z,1015.62
2019-04-25T08:43:36.320Z,1015.56
2019-04-25T08:44:34.810Z,1015.59
2019-04-25T08:45:33.546Z,1015.61
2019-04-25T08:46:35.428Z,1015.61
2019-04-25T08:47:34.425Z,1015.61
2019-04-25T08:48:34.484Z,1015.58
2019-04-25T08:49:34.727Z,1015.57
2019-04-25T08:50:35.830Z,1015.56
2019-04-25T08:51:34.876Z,1015.60
2019-04-25T08:52:34.792Z,1015.62
2019-04-25T08:53:34.478Z,1015.62
2019-04-25T08:54:34.366Z,1015.65
2019-04-25T08:55:34.356Z,1015.62
2019-04-25T08:56:34.250Z,1015.69
2019-04-25T08:57:33.870Z,1015.66
2019-04-25T08:58:34.476Z,1015.69
2019-04-25T08:59:39.727Z,1015.61
2019-04-25T09:00:35.527Z,1015.65
2019-04-25T09:01:34.317Z,1015.64
2019-04-25T09:02:36.014Z,1015.66
2019-04-25T09:03:32.920Z,1015.65
2019-04-25T09:04:33.178Z,1015.68
2019-04-25T09:05:33.380Z,1015.67
2019-04-25T09:06:33.301Z,1015.61
2019-04-25T09:07:34.941Z,1015.61
2019-04-25T09:08:33.035Z,1015.62
2019-04-25T09:09:34.967Z,1015.65
2019-04-25T09:10:35.247Z,1015.58
2019-04-25T09:11:34.485Z,1015.60
2019-04-25T09:12:32.821Z,1015.65
2019-04-25T09:13:43.863Z,1015.59
2019-04-25T09:14:32.417Z,1015.61
2019-04-25T09:15:33.723Z,1015.59
2019-04-25T09:16:34.492Z,1015.69
2019-04-25T09:17:33.170Z,1015.62
2019-04-25T09:18:34.713Z,1015.61
2019-04-25T09:19:33.596Z,1015.63
2019-04-25T09:20:34.830Z,1015.53
2019-04-25T09:21:34.180Z,1015.55
2019-04-25T09:22:32.151Z,1015.61
2019-04-25T09:23:34.427Z,1015.58
2019-04-25T09:24:32.108Z,1015.57
2019-04-25T09:25:34.515Z,1015.56
2019-04-25T09:26:32.432Z,1015.57
2019-04-25T09:27:34.312Z,1015.62
2019-04-25T09:28:34.723Z,1015.61
2019-04-25T09:29:34.378Z,1015.63
2019-04-25T09:30:32.037Z,1015.63
2019-04-25T09:31:34.539Z,1015.59
2019-04-25T09:32:33.835Z,1015.59
2019-04-25T09:33:32.009Z,1015.58
2019-04-25T09:34:33.519Z,1015.56
2019-04-25T09:35:33.528Z,1015.58
2019-04-25T09:36:33.522Z,1015.56
2019-04-25T09:37:33.477Z,1015.60
2019-04-25T09:38:31.950Z,1015.55
2019-04-25T09:39:33.592Z,1015.57
2019-04-25T09:40:31.944Z,1015.60
2019-04-25T09:41:33.489Z,1015.72
2019-04-25T09:42:33.667Z,1015.65
2019-04-25T09:43:33.401Z,1015.68
2019-04-25T09:44:42.499Z,1015.66
2019-04-25T09:45:33.495Z,1015.66
2019-04-25T09:46:31.867Z,1015.63
2019-04-25T09:47:33.432Z,1015.57
2019-04-25T09:48:31.845Z,1015.53
2019-04-25T09:49:31.829Z,1015.64
2019-04-25T09:50:31.862Z,1015.56
2019-04-25T09:51:33.453Z,1015.54
2019-04-25T09:52:31.797Z,1015.57
2019-04-25T09:53:31.787Z,1015.57
2019-04-25T09:54:33.321Z,1015.55
2019-04-25T09:55:31.770Z,1015.55
2019-04-25T09:56:31.793Z,1015.58
2019-04-25T09:57:33.284Z,1015.56
2019-04-25T09:58:31.735Z,1015.58
2019-04-25T09:59:33.203Z,1015.59
2019-04-25T10:00:33.328Z,1015.62
2019-04-25T10:01:31.701Z,1015.58
2019-04-25T10:02:31.726Z,1015.55
2019-04-25T10:03:33.257Z,1015.55
2019-04-25T10:04:34.474Z,1015.54
2019-04-25T10:05:31.652Z,1015.54
2019-04-25T10:06:33.208Z,1015.49
2019-04-25T10:07:31.631Z,1015.49
2019-04-25T10:08:31.633Z,1015.49
2019-04-25T10:09:31.613Z,1015.51
2019-04-25T10:10:31.600Z,1015.42
2019-04-25T10:11:31.586Z,1015.48
2019-04-25T10:12:31.631Z,1015.39
2019-04-25T10:13:31.604Z,1015.50
2019-04-25T10:14:31.561Z,1015.58
2019-04-25T10:15:43.016Z,1015.52
2019-04-25T10:16:31.534Z,1015.52
2019-04-25T10:17:31.531Z,1015.57
2019-04-25T10:18:32.959Z,1015.56
2019-04-25T10:19:31.507Z,1015.52
2019-04-25T10:20:33.253Z,1015.46
2019-04-25T10:21:31.476Z,1015.52
2019-04-25T10:22:31.466Z,1015.48
2019-04-25T10:23:31.461Z,1015.51
2019-04-25T10:24:31.464Z,1015.42
2019-04-25T10:25:31.467Z,1015.40
2019-04-25T10:26:31.428Z,1015.39
2019-04-25T10:27:31.416Z,1015.40
2019-04-25T10:28:31.405Z,1015.39
2019-04-25T10:29:41.200Z,1015.39
2019-04-25T10:30:32.414Z,1015.34
2019-04-25T10:31:31.372Z,1015.35
2019-04-25T10:32:31.358Z,1015.32
2019-04-25T10:33:31.347Z,1015.32
2019-04-25T10:34:31.334Z,1015.32
2019-04-25T10:35:31.330Z,1015.33
2019-04-25T10:36:31.354Z,1015.29
2019-04-25T10:37:31.305Z,1015.34
2019-04-25T10:38:31.341Z,1015.31
2019-04-25T10:39:31.285Z,1015.36
2019-04-25T10:40:31.280Z,1015.30
2019-04-25T10:41:31.258Z,1015.33
2019-04-25T10:42:31.275Z,1015.29
2019-04-25T10:43:31.238Z,1015.29
2019-04-25T10:44:31.230Z,1015.29
2019-04-25T10:45:31.214Z,1015.25
2019-04-25T10:46:41.744Z,1015.28
2019-04-25T10:47:31.213Z,1015.29
2019-04-25T10:48:31.185Z,1015.30
2019-04-25T10:49:31.173Z,1015.30
2019-04-25T10:50:31.159Z,1015.25
2019-04-25T10:51:31.146Z,1015.15
2019-04-25T10:52:31.134Z,1015.16
2019-04-25T10:53:31.167Z,1015.20
2019-04-25T10:54:31.116Z,1015.19
2019-04-25T10:55:31.104Z,1015.23
2019-04-25T10:56:31.091Z,1015.13
2019-04-25T10:57:31.079Z,1015.15
2019-04-25T10:58:31.074Z,1015.15
2019-04-25T10:59:31.096Z,1015.11
2019-04-25T11:00:31.045Z,1015.10
2019-04-25T11:01:31.040Z,1015.12
2019-04-25T11:02:31.032Z,1015.09
2019-04-25T11:03:31.021Z,1015.10
2019-04-25T11:04:31.004Z,1015.08
2019-04-25T11:05:31.035Z,1015.05
2019-04-25T11:06:30.986Z,1015.11
2019-04-25T11:07:30.975Z,1015.15
2019-04-25T11:08:30.963Z,1015.13
2019-04-25T11:09:30.946Z,1015.14
2019-04-25T11:10:30.944Z,1015.12
2019-04-25T11:11:30.935Z,1015.08
2019-04-25T11:12:30.925Z,1015.09
2019-04-25T11:13:30.904Z,1015.12
2019-04-25T11:14:30.894Z,1015.07
2019-04-25T11:15:30.888Z,1015.09
2019-04-25T11:16:30.914Z,1015.11
2019-04-25T11:17:40.781Z,1015.08
2019-04-25T11:18:30.851Z,1015.11
2019-04-25T11:19:30.840Z,1015.08
2019-04-25T11:20:30.825Z,1015.06
2019-04-25T11:21:30.822Z,1015.07
2019-04-25T11:22:30.812Z,1015.09
2019-04-25T11:23:30.796Z,1015.10
2019-04-25T11:24:30.789Z,1015.06
2019-04-25T11:25:30.784Z,1015.05
2019-04-25T11:26:30.767Z,1015.08
2019-04-25T11:27:30.768Z,1015.07
2019-04-25T11:28:30.736Z,1015.04
2019-04-25T11:29:30.728Z,1015.04
2019-04-25T11:30:30.720Z,1015.07
2019-04-25T11:31:30.703Z,1015.06
2019-04-25T11:32:30.697Z,1014.99
2019-04-25T11:33:30.727Z,1015.04
2019-04-25T11:34:30.679Z,1015.07
2019-04-25T11:35:30.662Z,1015.02
2019-04-25T11:36:30.653Z,1015.02
2019-04-25T11:37:30.638Z,1015.03
2019-04-25T11:38:30.928Z,1015.02
2019-04-25T11:39:30.653Z,1015.00
2019-04-25T11:40:30.603Z,1015.00
2019-04-25T11:41:31.157Z,1015.00
2019-04-25T11:42:30.588Z,1014.98
2019-04-25T11:43:30.574Z,1014.92
2019-04-25T11:44:30.558Z,1014.93
2019-04-25T11:45:30.591Z,1014.89
2019-04-25T11:46:30.545Z,1014.88
2019-04-25T11:47:30.533Z,1014.83
2019-04-25T11:48:40.614Z,1014.82
2019-04-25T11:49:30.503Z,1014.85
2019-04-25T11:50:30.500Z,1014.85
2019-04-25T11:51:30.489Z,1014.85
2019-04-25T11:52:30.492Z,1014.89
2019-04-25T11:53:30.460Z,1014.86
2019-04-25T11:54:30.451Z,1014.84
2019-04-25T11:55:30.450Z,1014.77
2019-04-25T11:56:30.437Z,1014.87
2019-04-25T11:57:30.418Z,1014.83
2019-04-25T11:58:30.412Z,1014.81
2019-04-25T11:59:30.400Z,1014.80
2019-04-25T12:00:30.382Z,1014.88
2019-04-25T12:01:30.413Z,1014.87
2019-04-25T12:02:30.372Z,1014.80
2019-04-25T12:03:30.354Z,1014.83
2019-04-25T12:04:30.338Z,1014.83
2019-04-25T12:05:30.334Z,1014.86
2019-04-25T12:06:30.320Z,1014.85